createdAt,value
2019-01-29T00:00:36.535Z,1.05
2019-01-29T00:10:54.792Z,1.18
2019-01-29T00:20:59.050Z,1.04
2019-01-29T00:30:51.501Z,1.16
2019-01-29T00:40:53.437Z,1.12
2019-01-29T00:50:54.627Z,1.36
2019-01-29T01:01:01.454Z,1.37
2019-01-29T01:11:09.693Z,0.91
2019-01-29T01:21:34.567Z,0.35
2019-01-29T01:31:27.830Z,0.46
2019-01-29T01:41:29.749Z,0.42
2019-01-29T01:51:30.533Z,0.51
2019-01-29T02:01:43.936Z,0.52
2019-01-29T02:11:38.173Z,0.58
2019-01-29T02:21:43.849Z,0.63
2019-01-29T02:31:44.543Z,0.58
2019-01-29T02:41:45.492Z,0.55
2019-01-29T02:51:46.242Z,0.54
2019-01-29T03:02:53.489Z,0.48
2019-01-29T03:11:58.468Z,0.58
2019-01-29T03:21:59.277Z,0.58
2019-01-29T03:32:01.063Z,0.68
2019-01-29T03:42:03.135Z,0.74
2019-01-29T03:53:45.334Z,0.68
2019-01-29T04:03:26.873Z,0.60
2019-01-29T04:12:16.277Z,0.56
2019-01-29T04:22:18.063Z,0.64
2019-01-29T04:32:18.807Z,0.67
2019-01-29T04:42:57.808Z,0.61
2019-01-29T04:52:45.461Z,0.55
2019-01-29T05:13:55.574Z,0.48
2019-01-29T05:24:06.638Z,0.43
2019-01-29T05:34:08.145Z,0.45
2019-01-29T05:44:09.764Z,0.48
2019-01-29T05:54:20.327Z,0.52
2019-01-29T06:04:13.467Z,0.48
2019-01-29T06:14:14.130Z,0.43
2019-01-29T06:24:26.889Z,0.18
2019-01-29T06:34:23.438Z,0.27
2019-01-29T06:44:34.675Z,0.38
2019-01-29T06:54:42.059Z,0.35
2019-01-29T07:04:43.175Z,0.18
2019-01-29T07:14:49.942Z,0.04
2019-01-29T07:24:55.705Z,-0.14
2019-01-29T07:35:01.999Z,-0.28
2019-01-29T07:46:00.437Z,-0.18
2019-01-29T07:55:26.586Z,0.20
2019-01-29T08:25:57.789Z,0.53
2019-01-29T08:35:59.722Z,0.49
2019-01-29T08:46:00.719Z,0.72
2019-01-29T08:56:01.846Z,1.00
2019-01-29T09:06:02.518Z,1.31
2019-01-29T09:16:03.328Z,1.45
2019-01-29T09:26:06.147Z,1.38
2019-01-29T09:36:06.960Z,1.33
2019-01-29T09:46:08.770Z,1.43
2019-01-29T09:56:09.639Z,1.40
2019-01-29T10:06:11.389Z,1.50
2019-01-29T10:16:12.115Z,1.86
2019-01-29T10:26:14.049Z,1.80
2019-01-29T10:36:15.853Z,1.66
2019-01-29T10:46:16.757Z,1.82
2019-01-29T10:56:17.517Z,1.89
2019-01-29T11:06:24.296Z,2.03
2019-01-29T11:16:25.076Z,1.87
2019-01-29T11:26:25.963Z,2.26
2019-01-29T11:36:29.938Z,2.41
2019-01-29T11:46:59.449Z,2.48
2019-01-29T12:07:35.651Z,2.46
2019-01-29T12:17:37.505Z,2.63
2019-01-29T12:27:38.415Z,2.91
2019-01-29T12:37:39.317Z,2.45
2019-01-29T12:47:41.373Z,2.37
2019-01-29T12:57:45.030Z,2.96
2019-01-29T13:07:47.506Z,2.72
2019-01-29T13:17:49.254Z,2.78
2019-01-29T13:27:51.378Z,3.02
2019-01-29T13:37:52.492Z,3.31
2019-01-29T13:47:55.520Z,3.97
2019-01-29T13:57:56.668Z,4.05
2019-01-29T14:07:57.625Z,3.76
2019-01-29T14:17:59.682Z,3.66
2019-01-29T14:28:00.660Z,3.49
2019-01-29T14:38:08.062Z,3.25
2019-01-29T14:48:08.904Z,3.13
2019-01-29T14:58:09.717Z,3.05
2019-01-29T15:08:10.487Z,2.95
2019-01-29T15:18:11.383Z,2.78
2019-01-29T15:28:14.194Z,2.53
2019-01-29T15:38:15.023Z,2.54
2019-01-29T15:48:15.702Z,2.65
2019-01-29T15:58:16.632Z,2.45
2019-01-29T16:08:17.338Z,2.31
2019-01-29T16:18:17.983Z,2.21
2019-01-29T16:28:18.684Z,2.02
2019-01-29T16:38:19.424Z,2.11
2019-01-29T16:48:20.232Z,2.02
2019-01-29T16:58:21.083Z,2.03
2019-01-29T17:08:21.756Z,2.03
2019-01-29T17:18:22.516Z,1.36
2019-01-29T17:28:23.203Z,0.98
2019-01-29T17:38:25.384Z,0.72
2019-01-29T17:48:26.093Z,0.40
2019-01-29T17:58:26.796Z,0.22
2019-01-29T18:08:28.306Z,0.02
2019-01-29T18:18:30.246Z,0.06
2019-01-29T18:28:32.027Z,0.13
2019-01-29T18:38:32.828Z,0.33
2019-01-29T18:48:33.539Z,0.42
2019-01-29T18:58:34.350Z,0.38
2019-01-29T19:08:35.057Z,0.42
2019-01-29T19:18:35.834Z,0.27
2019-01-29T19:28:36.607Z,0.20
2019-01-29T19:38:41.441Z,-0.10
2019-01-29T19:48:42.260Z,0.16
2019-01-29T19:58:43.071Z,0.03
2019-01-29T20:08:43.829Z,-0.01
2019-01-29T20:18:44.589Z,0.01
2019-01-29T20:28:46.639Z,0.09
2019-01-29T20:38:47.394Z,0.22
2019-01-29T20:48:48.259Z,0.21
2019-01-29T20:58:52.689Z,0.10
2019-01-29T21:08:52.885Z,0.10
2019-01-29T21:18:54.965Z,0.04
2019-01-29T21:29:02.704Z,0.07
2019-01-29T21:38:59.714Z,0.11
2019-01-29T21:49:06.667Z,0.00
2019-01-29T21:59:12.909Z,0.10
2019-01-29T22:09:07.534Z,0.13
2019-01-29T22:19:09.501Z,0.27
2019-01-29T22:29:11.462Z,0.28
2019-01-29T22:39:12.391Z,0.40
2019-01-29T22:49:13.481Z,0.30
2019-01-29T22:59:14.703Z,0.17
2019-01-29T23:09:15.593Z,0.15
2019-01-29T23:19:17.368Z,0.05
2019-01-29T23:29:18.240Z,-0.03
2019-01-29T23:39:20.056Z,-0.05
2019-01-29T23:49:21.955Z,-0.11
2019-01-29T23:59:23.074Z,-0.10
